createdAt,value
2019-04-28T00:01:57.664Z,6.17
2019-04-28T00:04:26.457Z,5.87
2019-04-28T00:06:55.380Z,5.97
2019-04-28T00:09:24.266Z,5.40
2019-04-28T00:11:53.099Z,5.60
2019-04-28T00:14:22.126Z,5.83
2019-04-28T00:16:51.278Z,5.37
2019-04-28T00:19:21.593Z,5.47
2019-04-28T00:21:55.163Z,5.70
2019-04-28T00:24:25.566Z,4.93
2019-04-28T00:26:55.970Z,5.90
2019-04-28T00:29:37.244Z,5.37
2019-04-28T00:31:55.282Z,5.67
2019-04-28T00:34:24.072Z,5.23
2019-04-28T00:36:54.494Z,6.13
2019-04-28T00:39:23.374Z,5.30
2019-04-28T00:41:52.150Z,5.70
2019-04-28T00:44:21.982Z,5.50
2019-04-28T00:46:51.257Z,6.27
2019-04-28T00:49:23.246Z,5.97
2019-04-28T00:51:52.153Z,6.20
2019-04-28T00:54:21.841Z,6.73
2019-04-28T00:56:51.684Z,5.70
2019-04-28T00:59:21.712Z,6.40
2019-04-28T01:01:52.212Z,6.17
2019-04-28T01:04:21.978Z,6.00
2019-04-28T01:06:52.015Z,6.33
2019-04-28T01:09:21.847Z,6.03
2019-04-28T01:11:51.460Z,6.53
2019-04-28T01:14:21.485Z,6.40
2019-04-28T01:16:54.860Z,5.70
2019-04-28T01:19:25.260Z,6.43
2019-04-28T01:22:12.579Z,5.10
2019-04-28T01:24:41.534Z,6.33
2019-04-28T01:27:14.388Z,6.93
2019-04-28T01:29:43.174Z,6.20
2019-04-28T01:32:20.319Z,5.97
2019-04-28T01:34:49.835Z,6.13
2019-04-28T01:37:19.598Z,6.23
2019-04-28T01:39:49.607Z,6.30
2019-04-28T01:42:20.275Z,5.60
2019-04-28T01:44:49.466Z,6.23
2019-04-28T01:47:18.326Z,6.50
2019-04-28T01:49:47.128Z,5.90
2019-04-28T01:52:15.971Z,5.47
2019-04-28T01:54:44.730Z,6.27
2019-04-28T01:57:13.546Z,5.90
2019-04-28T01:59:42.341Z,5.77
2019-04-28T02:02:11.087Z,5.43
2019-04-28T02:04:40.434Z,5.77
2019-04-28T02:07:10.776Z,6.00
2019-04-28T02:09:39.743Z,5.23
2019-04-28T02:12:10.520Z,5.63
2019-04-28T02:14:40.420Z,5.70
2019-04-28T02:17:10.480Z,5.53
2019-04-28T02:19:40.957Z,5.17
2019-04-28T02:22:27.972Z,5.00
2019-04-28T02:24:56.800Z,4.93
2019-04-28T02:27:25.823Z,4.70
2019-04-28T02:29:54.660Z,5.60
2019-04-28T02:32:24.415Z,6.07
2019-04-28T02:34:53.434Z,4.43
2019-04-28T02:37:22.238Z,5.17
2019-04-28T02:39:50.963Z,4.47
2019-04-28T02:42:20.871Z,5.40
2019-04-28T02:44:50.494Z,4.77
2019-04-28T02:47:21.909Z,5.60
2019-04-28T02:50:00.959Z,4.47
2019-04-28T02:52:47.711Z,4.67
2019-04-28T02:55:16.651Z,4.97
2019-04-28T02:57:45.479Z,5.00
2019-04-28T03:00:14.570Z,4.23
2019-04-28T03:02:43.503Z,4.77
2019-04-28T03:05:12.318Z,4.83
2019-04-28T03:07:41.307Z,4.47
2019-04-28T03:10:10.985Z,4.37
2019-04-28T03:12:41.385Z,4.77
2019-04-28T03:15:10.787Z,4.13
2019-04-28T03:17:40.676Z,4.40
2019-04-28T03:20:10.930Z,3.83
2019-04-28T03:22:40.711Z,3.60
2019-04-28T03:25:12.366Z,4.63
2019-04-28T03:27:42.784Z,5.10
2019-04-28T03:30:33.332Z,3.97
2019-04-28T03:33:10.988Z,4.47
2019-04-28T03:35:32.802Z,4.80
2019-04-28T03:38:01.753Z,4.13
2019-04-28T03:40:33.547Z,4.63
2019-04-28T03:43:03.122Z,5.00
2019-04-28T03:45:33.046Z,4.63
2019-04-28T03:48:01.878Z,5.67
2019-04-28T03:50:31.303Z,4.70
2019-04-28T03:53:01.052Z,5.03
2019-04-28T03:55:34.519Z,5.40
2019-04-28T03:58:01.032Z,4.23
2019-04-28T04:00:31.220Z,5.60
2019-04-28T04:03:00.918Z,5.80
2019-04-28T04:05:30.702Z,5.20
2019-04-28T04:08:00.853Z,5.80
2019-04-28T04:10:31.517Z,6.47
2019-04-28T04:13:01.940Z,6.50
2019-04-28T04:15:48.639Z,6.23
2019-04-28T04:18:22.071Z,7.27
2019-04-28T04:20:51.286Z,5.83
2019-04-28T04:23:22.759Z,6.33
2019-04-28T04:25:51.321Z,6.17
2019-04-28T04:28:20.707Z,6.70
2019-04-28T04:30:50.882Z,7.03
2019-04-28T04:33:20.730Z,6.97
2019-04-28T04:35:51.730Z,6.47
2019-04-28T04:38:21.741Z,5.80
2019-04-28T04:40:51.437Z,6.50
2019-04-28T04:43:22.966Z,5.87
2019-04-28T04:45:52.458Z,5.83
2019-04-28T04:48:21.634Z,5.20
2019-04-28T04:50:51.133Z,5.67
2019-04-28T04:53:20.788Z,5.97
2019-04-28T04:55:50.496Z,4.83
2019-04-28T04:58:21.439Z,5.97
2019-04-28T05:01:00.968Z,4.70
2019-04-28T05:03:40.131Z,5.50
2019-04-28T05:06:27.072Z,4.23
2019-04-28T05:09:07.524Z,4.90
2019-04-28T05:11:36.278Z,5.00
2019-04-28T05:14:07.472Z,4.40
2019-04-28T05:16:36.127Z,4.33
2019-04-28T05:19:05.143Z,4.67
2019-04-28T05:21:33.964Z,4.40
2019-04-28T05:24:04.356Z,4.33
2019-04-28T05:26:33.186Z,4.07
2019-04-28T05:29:01.976Z,4.10
2019-04-28T05:31:30.838Z,3.93
2019-04-28T05:34:00.111Z,3.93
2019-04-28T05:36:35.085Z,4.07
2019-04-28T05:39:00.185Z,3.53
2019-04-28T05:41:29.579Z,3.70
2019-04-28T05:43:59.630Z,3.90
2019-04-28T05:46:30.023Z,3.70
2019-04-28T05:49:00.483Z,4.00
2019-04-28T05:51:31.077Z,3.43
2019-04-28T05:54:07.183Z,3.20
2019-04-28T05:56:40.502Z,3.40
2019-04-28T05:59:10.955Z,2.87
2019-04-28T06:01:57.986Z,2.97
2019-04-28T06:04:30.286Z,4.10
2019-04-28T06:07:00.191Z,3.23
2019-04-28T06:09:30.586Z,3.00
2019-04-28T06:12:00.175Z,3.07
2019-04-28T06:14:30.046Z,2.87
2019-04-28T06:17:00.463Z,2.83
2019-04-28T06:19:30.185Z,3.10
2019-04-28T06:21:59.089Z,2.80
2019-04-28T06:24:27.872Z,3.30
2019-04-28T06:26:56.618Z,3.10
2019-04-28T06:29:25.387Z,3.80
2019-04-28T06:31:54.210Z,3.37
2019-04-28T06:34:23.026Z,3.50
2019-04-28T06:36:51.781Z,3.87
2019-04-28T06:39:20.623Z,4.10
2019-04-28T06:41:49.447Z,3.57
2019-04-28T06:44:18.261Z,3.63
2019-04-28T06:46:47.058Z,4.20
2019-04-28T06:49:15.813Z,4.07
2019-04-28T06:51:44.584Z,4.50
2019-04-28T06:54:13.475Z,4.80
2019-04-28T06:56:42.249Z,4.47
2019-04-28T06:59:11.051Z,5.37
2019-04-28T07:01:39.861Z,5.57
2019-04-28T07:04:08.604Z,5.80
2019-04-28T07:06:37.370Z,5.70
2019-04-28T07:09:07.328Z,5.57
2019-04-28T07:11:36.040Z,5.90
2019-04-28T07:14:04.998Z,6.40
2019-04-28T07:16:34.140Z,6.03
2019-04-28T07:19:02.890Z,5.77
2019-04-28T07:21:33.385Z,5.00
2019-04-28T07:24:02.197Z,5.27
2019-04-28T07:26:31.038Z,5.70
2019-04-28T07:28:59.816Z,4.93
2019-04-28T07:31:28.646Z,5.63
2019-04-28T07:33:57.476Z,5.63
2019-04-28T07:36:26.293Z,5.77
2019-04-28T07:38:55.082Z,5.00
2019-04-28T07:41:23.834Z,5.03
2019-04-28T07:43:52.679Z,5.10
2019-04-28T07:46:21.433Z,4.80
2019-04-28T07:48:52.409Z,5.37
2019-04-28T07:51:22.288Z,5.40
2019-04-28T07:53:52.681Z,4.63
2019-04-28T07:56:21.544Z,4.67
2019-04-28T07:58:50.355Z,4.77
2019-04-28T08:01:19.186Z,4.90
2019-04-28T08:03:49.661Z,4.80
2019-04-28T08:06:18.495Z,4.67
2019-04-28T08:08:47.248Z,4.40
2019-04-28T08:11:16.103Z,4.60
2019-04-28T08:13:44.955Z,4.53
2019-04-28T08:16:13.711Z,4.83
2019-04-28T08:18:42.570Z,4.70
2019-04-28T08:21:11.387Z,4.57
2019-04-28T08:23:46.880Z,3.80
2019-04-28T08:26:10.765Z,4.27
2019-04-28T08:28:39.643Z,3.90
2019-04-28T08:31:10.063Z,4.83
2019-04-28T08:33:40.467Z,3.23
2019-04-28T08:36:09.262Z,2.63
2019-04-28T08:38:38.026Z,3.03
2019-04-28T08:41:07.173Z,3.27
2019-04-28T08:43:35.949Z,3.00
2019-04-28T08:46:04.772Z,3.50
2019-04-28T08:48:33.564Z,2.80
2019-04-28T08:51:02.395Z,3.20
2019-04-28T08:53:31.274Z,2.20
2019-04-28T08:56:00.092Z,2.57
2019-04-28T08:58:28.948Z,3.00
2019-04-28T09:00:58.037Z,3.90
2019-04-28T09:03:26.868Z,2.87
2019-04-28T09:05:55.614Z,2.80
2019-04-28T09:08:24.476Z,3.20
2019-04-28T09:10:53.309Z,3.20
2019-04-28T09:13:22.146Z,2.90
2019-04-28T09:15:51.161Z,3.23
2019-04-28T09:18:19.924Z,2.23
2019-04-28T09:20:48.710Z,2.80
2019-04-28T09:23:17.575Z,2.40
2019-04-28T09:25:46.326Z,2.47
2019-04-28T09:28:15.176Z,2.40
2019-04-28T09:30:44.005Z,2.23
2019-04-28T09:33:12.856Z,2.63
2019-04-28T09:35:41.630Z,2.47
2019-04-28T09:38:10.487Z,2.20
2019-04-28T09:40:39.324Z,3.20
2019-04-28T09:43:15.443Z,2.90
2019-04-28T09:45:46.133Z,2.47
2019-04-28T09:48:14.951Z,1.97
2019-04-28T09:50:43.725Z,2.60
2019-04-28T09:53:12.554Z,4.37
2019-04-28T09:55:41.492Z,3.07
2019-04-28T09:58:10.252Z,2.03
2019-04-28T10:00:39.698Z,4.40
2019-04-28T10:03:08.544Z,2.57
2019-04-28T10:05:37.340Z,2.63
2019-04-28T10:08:06.174Z,2.77
2019-04-28T10:10:34.935Z,2.77
2019-04-28T10:13:03.826Z,2.23
2019-04-28T10:15:32.645Z,2.70
2019-04-28T10:18:02.328Z,3.30
2019-04-28T10:20:31.161Z,2.30
2019-04-28T10:23:00.070Z,2.00
2019-04-28T10:25:28.886Z,1.97
2019-04-28T10:27:57.761Z,2.53
2019-04-28T10:30:26.600Z,1.83
2019-04-28T10:32:55.357Z,1.63
2019-04-28T10:35:24.229Z,2.10
2019-04-28T10:37:53.071Z,2.20
2019-04-28T10:40:58.724Z,1.93
2019-04-28T10:43:27.678Z,2.23
2019-04-28T10:45:56.590Z,1.93
2019-04-28T10:48:25.372Z,2.30
2019-04-28T10:50:54.248Z,2.10
2019-04-28T10:53:23.040Z,1.70
2019-04-28T10:55:51.911Z,1.80
2019-04-28T10:58:20.812Z,2.30
2019-04-28T11:00:49.611Z,1.80
2019-04-28T11:03:18.381Z,1.20
2019-04-28T11:05:47.160Z,1.20
2019-04-28T11:08:17.560Z,1.10
2019-04-28T11:10:46.587Z,1.20
2019-04-28T11:13:15.757Z,1.10
2019-04-28T11:15:44.666Z,1.30
2019-04-28T11:18:14.904Z,1.53
2019-04-28T11:20:43.726Z,1.40
2019-04-28T11:23:12.538Z,1.93
2019-04-28T11:25:41.362Z,1.37
2019-04-28T11:28:10.181Z,1.70
2019-04-28T11:30:39.150Z,1.40
2019-04-28T11:33:09.554Z,1.17
2019-04-28T11:35:39.995Z,1.10
2019-04-28T11:38:08.824Z,1.30
2019-04-28T11:40:37.584Z,1.30
2019-04-28T11:43:07.179Z,1.13
2019-04-28T11:45:36.009Z,1.20
2019-04-28T11:48:04.865Z,1.20
2019-04-28T11:50:33.993Z,1.07
2019-04-28T11:53:02.842Z,1.37
2019-04-28T11:55:31.618Z,1.10
2019-04-28T11:58:00.444Z,1.60
2019-04-28T12:00:30.835Z,1.67
2019-04-28T12:02:59.705Z,1.10
2019-04-28T12:05:34.659Z,1.10
2019-04-28T12:08:03.876Z,1.00
2019-04-28T12:10:52.262Z,1.20
2019-04-28T12:13:37.939Z,1.10
2019-04-28T12:16:24.457Z,1.03
2019-04-28T12:18:54.870Z,2.90
2019-04-28T12:21:23.687Z,1.57
2019-04-28T12:23:52.551Z,2.00
2019-04-28T12:26:21.338Z,1.50
2019-04-28T12:28:50.190Z,1.30
2019-04-28T12:31:19.084Z,1.37
2019-04-28T12:33:47.976Z,1.50
2019-04-28T12:36:16.770Z,1.73
2019-04-28T12:38:45.583Z,1.50
2019-04-28T12:41:14.344Z,1.30
2019-04-28T12:43:43.108Z,1.60
2019-04-28T12:46:11.981Z,1.50
2019-04-28T12:48:40.755Z,1.43
2019-04-28T12:51:09.589Z,1.40
2019-04-28T12:53:38.360Z,1.30
2019-04-28T12:56:07.223Z,1.70
2019-04-28T12:58:36.055Z,1.50
2019-04-28T13:01:25.197Z,1.73
2019-04-28T13:04:01.245Z,1.80
2019-04-28T13:06:30.114Z,2.30
2019-04-28T13:08:58.852Z,2.67
2019-04-28T13:11:27.818Z,1.60
2019-04-28T13:13:56.707Z,1.50
2019-04-28T13:16:25.455Z,1.73
2019-04-28T13:18:54.210Z,1.60
2019-04-28T13:21:23.028Z,1.60
2019-04-28T13:23:51.825Z,1.60
2019-04-28T13:26:20.632Z,1.57
2019-04-28T13:28:49.484Z,1.70
2019-04-28T13:31:18.351Z,1.32
2019-04-28T13:33:55.995Z,1.80
2019-04-28T13:36:17.681Z,2.25
2019-04-28T13:38:46.480Z,1.50
2019-04-28T13:41:15.217Z,1.65
2019-04-28T13:43:44.146Z,1.70
2019-04-28T13:46:12.969Z,2.15
2019-04-28T13:48:41.786Z,1.75
2019-04-28T13:51:10.704Z,1.52
2019-04-28T13:53:39.557Z,1.60
2019-04-28T13:56:08.333Z,1.30
2019-04-28T13:58:37.980Z,1.60
2019-04-28T14:01:11.243Z,1.60
2019-04-28T14:03:57.998Z,1.60
2019-04-28T14:06:32.193Z,1.47
2019-04-28T14:09:01.025Z,1.87
2019-04-28T14:11:29.937Z,1.60
2019-04-28T14:13:58.763Z,1.80
2019-04-28T14:16:27.542Z,2.33
2019-04-28T14:18:56.343Z,1.07
2019-04-28T14:21:25.093Z,1.23
2019-04-28T14:23:53.947Z,1.15
2019-04-28T14:26:22.754Z,1.20
2019-04-28T14:28:51.612Z,1.22
2019-04-28T14:31:20.358Z,1.10
2019-04-28T14:33:49.145Z,2.12
2019-04-28T14:36:18.035Z,1.45
2019-04-28T14:38:46.943Z,1.32
2019-04-28T14:41:15.836Z,0.93
2019-04-28T14:43:44.592Z,1.32
2019-04-28T14:46:13.437Z,1.22
2019-04-28T14:48:42.390Z,1.05
2019-04-28T14:51:11.210Z,1.10
2019-04-28T14:53:40.060Z,1.20
2019-04-28T14:56:08.921Z,2.42
2019-04-28T14:58:37.705Z,1.82
2019-04-28T15:01:13.857Z,1.82
2019-04-28T15:03:49.992Z,1.40
2019-04-28T15:06:20.432Z,1.05
2019-04-28T15:09:02.629Z,1.57
2019-04-28T15:11:33.222Z,1.70
2019-04-28T15:14:02.054Z,2.10
2019-04-28T15:16:30.889Z,1.27
2019-04-28T15:18:59.781Z,1.70
2019-04-28T15:21:28.551Z,1.40
2019-04-28T15:23:57.337Z,1.90
2019-04-28T15:26:26.127Z,1.47
2019-04-28T15:28:54.909Z,1.30
2019-04-28T15:31:23.721Z,1.37
2019-04-28T15:33:52.521Z,1.40
2019-04-28T15:36:21.274Z,1.30
2019-04-28T15:38:50.124Z,1.80
2019-04-28T15:41:21.899Z,2.53
2019-04-28T15:43:49.463Z,2.93
2019-04-28T15:46:18.251Z,3.17
2019-04-28T15:48:47.242Z,1.43
2019-04-28T15:51:16.056Z,2.00
2019-04-28T15:53:46.440Z,1.27
2019-04-28T15:56:28.336Z,1.30
2019-04-28T15:58:57.111Z,1.30
2019-04-28T16:01:25.974Z,1.40
2019-04-28T16:03:54.834Z,1.50
2019-04-28T16:06:23.666Z,1.70
2019-04-28T16:09:12.609Z,1.40
2019-04-28T16:11:43.095Z,1.30
2019-04-28T16:14:11.915Z,2.00
2019-04-28T16:16:40.790Z,1.50
2019-04-28T16:19:09.602Z,1.53
2019-04-28T16:21:38.554Z,1.50
2019-04-28T16:24:07.527Z,2.07
2019-04-28T16:26:36.307Z,1.60
2019-04-28T16:29:05.734Z,2.03
2019-04-28T16:31:34.636Z,2.10
2019-04-28T16:34:03.472Z,1.87
2019-04-28T16:36:32.292Z,2.13
2019-04-28T16:39:01.138Z,1.70
2019-04-28T16:41:31.523Z,2.60
2019-04-28T16:44:04.027Z,2.03
2019-04-28T16:46:32.885Z,2.00
2019-04-28T16:49:01.657Z,1.60
2019-04-28T16:51:30.415Z,1.67
2019-04-28T16:53:59.200Z,1.73
2019-04-28T16:56:29.589Z,1.70
2019-04-28T16:59:00.006Z,1.80
2019-04-28T17:01:46.666Z,2.00
2019-04-28T17:04:15.528Z,1.70
2019-04-28T17:06:44.289Z,1.80
2019-04-28T17:09:13.274Z,1.80
2019-04-28T17:11:42.082Z,1.90
2019-04-28T17:14:10.945Z,1.90
2019-04-28T17:16:39.725Z,2.07
2019-04-28T17:19:08.552Z,2.13
2019-04-28T17:21:37.344Z,2.37
2019-04-28T17:24:06.100Z,2.30
2019-04-28T17:26:34.898Z,2.40
2019-04-28T17:29:04.242Z,2.30
2019-04-28T17:31:33.072Z,2.73
2019-04-28T17:34:02.057Z,2.10
2019-04-28T17:36:30.849Z,2.63
2019-04-28T17:38:59.603Z,2.37
2019-04-28T17:41:28.487Z,2.53
2019-04-28T17:43:58.208Z,2.50
2019-04-28T17:46:27.043Z,2.60
2019-04-28T17:49:00.420Z,2.90
2019-04-28T17:51:29.202Z,3.17
2019-04-28T17:53:58.027Z,2.67
2019-04-28T17:56:27.052Z,3.07
2019-04-28T17:58:55.917Z,2.87
2019-04-28T18:01:41.201Z,2.97
2019-04-28T18:04:23.624Z,3.10
2019-04-28T18:06:54.012Z,2.70
2019-04-28T18:09:23.017Z,2.87
2019-04-28T18:11:51.775Z,3.20
2019-04-28T18:14:20.969Z,3.40
2019-04-28T18:16:51.505Z,3.10
2019-04-28T18:19:21.905Z,3.30
2019-04-28T18:21:50.660Z,3.63
2019-04-28T18:24:19.431Z,3.67
2019-04-28T18:26:48.183Z,3.63
2019-04-28T18:29:16.943Z,3.53
2019-04-28T18:31:50.269Z,3.50
2019-04-28T18:34:20.718Z,4.17
2019-04-28T18:36:53.875Z,3.50
2019-04-28T18:39:36.106Z,3.30
2019-04-28T18:42:23.291Z,3.73
2019-04-28T18:44:53.033Z,4.13
2019-04-28T18:47:21.863Z,4.20
2019-04-28T18:49:50.671Z,4.43
2019-04-28T18:52:19.512Z,4.30
2019-04-28T18:54:48.304Z,3.70
2019-04-28T18:57:17.049Z,4.10
2019-04-28T18:59:45.874Z,4.37
2019-04-28T19:02:19.275Z,4.30
2019-04-28T19:04:48.099Z,4.13
2019-04-28T19:07:18.508Z,4.20
2019-04-28T19:09:57.638Z,3.93
2019-04-28T19:12:33.718Z,3.80
2019-04-28T19:15:09.983Z,3.77
2019-04-28T19:17:43.048Z,3.80
2019-04-28T19:20:13.681Z,3.83
2019-04-28T19:22:46.451Z,4.00
2019-04-28T19:25:15.442Z,3.70
2019-04-28T19:27:44.197Z,3.67
2019-04-28T19:30:13.133Z,3.37
2019-04-28T19:32:41.994Z,3.30
2019-04-28T19:35:10.831Z,2.97
2019-04-28T19:37:39.674Z,3.23
2019-04-28T19:40:08.531Z,3.03
2019-04-28T19:42:37.268Z,3.47
2019-04-28T19:45:07.983Z,3.60
2019-04-28T19:47:37.754Z,3.10
2019-04-28T19:50:07.686Z,3.50
2019-04-28T19:52:39.037Z,3.40
2019-04-28T19:55:15.147Z,3.27
2019-04-28T19:57:45.533Z,3.40
2019-04-28T20:00:28.768Z,3.40
2019-04-28T20:02:57.543Z,3.60
2019-04-28T20:05:26.301Z,3.57
2019-04-28T20:07:55.138Z,3.90
2019-04-28T20:10:23.980Z,3.73
2019-04-28T20:12:52.797Z,3.80
2019-04-28T20:15:21.556Z,3.10
2019-04-28T20:17:50.326Z,4.10
2019-04-28T20:20:19.161Z,3.57
2019-04-28T20:22:47.921Z,3.63
2019-04-28T20:25:16.759Z,3.60
2019-04-28T20:27:45.586Z,3.57
2019-04-28T20:30:14.512Z,3.43
2019-04-28T20:32:44.907Z,3.60
2019-04-28T20:35:18.376Z,3.83
2019-04-28T20:37:51.522Z,3.63
2019-04-28T20:40:24.674Z,3.60
2019-04-28T20:43:04.330Z,3.83
2019-04-28T20:45:33.182Z,4.03
2019-04-28T20:48:01.955Z,3.90
2019-04-28T20:50:31.689Z,3.77
2019-04-28T20:53:00.468Z,4.63
2019-04-28T20:55:29.286Z,4.10
2019-04-28T20:57:57.987Z,3.90
2019-04-28T21:00:26.777Z,4.30
2019-04-28T21:02:55.507Z,4.13
2019-04-28T21:05:24.313Z,4.37
2019-04-28T21:07:53.146Z,3.53
2019-04-28T21:10:22.005Z,3.97
2019-04-28T21:12:50.851Z,4.23
2019-04-28T21:15:19.635Z,4.50
2019-04-28T21:17:48.411Z,4.57
2019-04-28T21:20:17.169Z,4.30
2019-04-28T21:22:45.972Z,4.40
2019-04-28T21:25:14.888Z,4.07
2019-04-28T21:27:43.633Z,4.23
2019-04-28T21:30:12.663Z,4.07
2019-04-28T21:32:41.483Z,4.30
2019-04-28T21:35:10.426Z,4.50
2019-04-28T21:37:39.165Z,4.37
2019-04-28T21:40:09.105Z,4.20
2019-04-28T21:42:54.682Z,4.30
2019-04-28T21:45:28.042Z,4.50
2019-04-28T21:47:56.864Z,4.40
2019-04-28T21:50:25.713Z,4.27
2019-04-28T21:52:55.362Z,4.30
2019-04-28T21:55:24.181Z,3.87
2019-04-28T21:57:52.928Z,4.03
2019-04-28T22:00:24.916Z,4.20
2019-04-28T22:02:53.734Z,4.03
2019-04-28T22:05:30.166Z,5.10
2019-04-28T22:07:52.969Z,4.60
2019-04-28T22:10:21.860Z,5.67
2019-04-28T22:12:50.699Z,4.63
2019-04-28T22:15:19.606Z,4.87
2019-04-28T22:17:48.412Z,4.70
2019-04-28T22:20:17.159Z,6.23
2019-04-28T22:22:45.983Z,5.70
2019-04-28T22:25:25.386Z,9.80
2019-04-28T22:27:54.285Z,9.30
2019-04-28T22:30:23.126Z,5.53
2019-04-28T22:32:51.883Z,6.63
2019-04-28T22:35:20.693Z,5.10
2019-04-28T22:37:49.455Z,5.00
2019-04-28T22:40:18.412Z,4.73
2019-04-28T22:42:47.208Z,4.57
2019-04-28T22:45:16.268Z,4.70
2019-04-28T22:47:45.083Z,5.17
2019-04-28T22:50:36.278Z,4.90
2019-04-28T22:53:05.556Z,5.10
2019-04-28T22:55:36.873Z,5.33
2019-04-28T22:58:10.031Z,5.30
2019-04-28T23:00:43.399Z,4.93
2019-04-28T23:03:20.136Z,5.00
2019-04-28T23:05:48.965Z,5.23
2019-04-28T23:08:17.783Z,5.07
2019-04-28T23:10:46.670Z,5.33
2019-04-28T23:13:15.486Z,4.97
2019-04-28T23:15:44.247Z,5.13
2019-04-28T23:18:13.148Z,5.27
2019-04-28T23:20:43.535Z,4.90
2019-04-28T23:23:12.467Z,4.90
2019-04-28T23:25:41.220Z,5.30
2019-04-28T23:28:09.989Z,5.57
2019-04-28T23:30:44.291Z,5.17
2019-04-28T23:33:13.119Z,5.43
2019-04-28T23:35:42.064Z,5.50
2019-04-28T23:38:10.905Z,5.17
2019-04-28T23:40:41.327Z,5.37
2019-04-28T23:43:11.739Z,5.57
2019-04-28T23:45:40.583Z,6.90
2019-04-28T23:48:09.397Z,5.77
2019-04-28T23:50:42.904Z,5.57
2019-04-28T23:53:13.339Z,6.03
2019-04-28T23:55:42.100Z,5.97
2019-04-28T23:58:11.809Z,6.47
